Time;durP1;ratioP1;P1;durP2;ratioP2;P2;SDS_P1;SDS_P2;PMS_P1;PMS_P2;Temp;Humidity;BMP_temperature;BMP_pressure;BME280_temperature;BME280_humidity;BME280_pressure;Samples;Min_cycle;Max_cycle;Signal;HPM_P1;HPM_P2
2021/06/24 00:00:47;;;;;;;2.70;2.60;;;16.60;99.90;;;;;;4956380;28;20936;-77
2021/06/24 00:03:13;;;;;;;2.70;2.50;;;16.60;99.90;;;;;;4943843;29;20502;-77
2021/06/24 00:05:40;;;;;;;0.90;0.87;;;16.50;99.90;;;;;;4944276;29;20450;-77
2021/06/24 00:08:07;;;;;;;1.03;0.93;;;16.50;99.90;;;;;;4952552;28;20442;-78
2021/06/24 00:10:34;;;;;;;1.77;1.60;;;16.50;99.90;;;;;;4938117;29;20419;-79
2021/06/24 00:13:00;;;;;;;6.17;2.20;;;16.60;99.90;;;;;;4942882;29;20493;-79
2021/06/24 00:15:25;;;;;;;2.13;1.83;;;16.60;99.90;;;;;;4943639;29;20452;-78
2021/06/24 00:17:51;;;;;;;1.60;1.50;;;16.60;99.90;;;;;;4956534;29;20194;-77
2021/06/24 00:20:17;;;;;;;3.60;2.30;;;16.60;99.90;;;;;;4942380;28;20187;-79
2021/06/24 00:22:42;;;;;;;1.70;1.60;;;16.60;99.90;;;;;;4945053;29;20180;-78
2021/06/24 00:25:08;;;;;;;1.47;0.97;;;16.60;99.90;;;;;;4951735;29;20417;-78
2021/06/24 00:27:34;;;;;;;2.60;1.03;;;16.60;99.90;;;;;;4941927;28;20202;-77
2021/06/24 00:29:59;;;;;;;2.10;1.33;;;16.60;99.90;;;;;;4952829;29;20414;-78
2021/06/24 00:32:25;;;;;;;1.20;1.10;;;16.70;99.90;;;;;;4950154;28;20201;-78
2021/06/24 00:34:51;;;;;;;2.00;1.87;;;16.70;99.90;;;;;;4962012;28;20178;-78
2021/06/24 00:37:16;;;;;;;1.97;1.03;;;16.60;99.90;;;;;;4953786;29;20186;-77
2021/06/24 00:39:42;;;;;;;5.33;2.00;;;16.70;99.90;;;;;;4947181;29;20589;-78
2021/06/24 00:42:08;;;;;;;1.13;1.10;;;16.70;99.90;;;;;;4954949;29;20212;-78
2021/06/24 00:44:33;;;;;;;2.20;1.23;;;16.70;99.90;;;;;;4949387;28;20174;-78
2021/06/24 00:46:59;;;;;;;5.90;3.70;;;16.70;99.90;;;;;;4942923;29;21156;-78
2021/06/24 00:49:25;;;;;;;5.30;1.70;;;16.60;99.90;;;;;;4949304;28;20190;-78
2021/06/24 00:51:51;;;;;;;2.63;2.30;;;16.60;99.90;;;;;;4952918;29;20461;-78
2021/06/24 00:54:16;;;;;;;1.80;1.70;;;16.60;99.90;;;;;;4944393;29;20175;-79
2021/06/24 00:56:42;;;;;;;3.10;2.17;;;16.60;99.90;;;;;;4948847;29;20229;-78
2021/06/24 00:59:07;;;;;;;2.40;2.20;;;16.50;99.90;;;;;;4952162;29;20202;-78
2021/06/24 01:01:34;;;;;;;3.50;1.73;;;16.50;99.90;;;;;;4957055;28;20175;-79
2021/06/24 01:03:59;;;;;;;1.80;1.70;;;16.40;99.90;;;;;;4957098;28;20174;-78
2021/06/24 01:06:25;;;;;;;0.80;0.80;;;16.40;99.90;;;;;;4954918;29;21123;-78
2021/06/24 01:08:51;;;;;;;3.73;3.53;;;16.30;99.90;;;;;;4953927;28;20572;-78
2021/06/24 01:11:17;;;;;;;2.73;2.00;;;16.20;99.90;;;;;;4955973;28;20186;-78
2021/06/24 01:13:47;;;;;;;2.13;2.03;;;16.20;99.90;;;;;;4957158;28;20210;-78
2021/06/24 01:16:13;;;;;;;2.70;2.50;;;16.20;99.90;;;;;;4953645;29;20422;-78
2021/06/24 01:18:38;;;;;;;0.80;0.80;;;16.20;99.90;;;;;;4952974;28;20458;-78
2021/06/24 01:21:04;;;;;;;2.10;1.93;;;16.20;99.90;;;;;;4952957;29;20955;-79
2021/06/24 01:23:38;;;;;;;2.97;1.00;;;16.20;99.90;;;;;;4955491;28;20575;-79
2021/06/24 01:26:04;;;;;;;2.30;0.90;;;16.20;99.90;;;;;;4944249;28;20186;-79
2021/06/24 01:28:29;;;;;;;2.30;1.57;;;16.10;99.90;;;;;;4945159;29;20966;-78
2021/06/24 01:30:55;;;;;;;2.70;1.37;;;16.00;99.90;;;;;;4950790;29;20186;-78
2021/06/24 01:33:24;;;;;;;1.87;1.30;;;16.00;99.90;;;;;;4957591;29;20702;-79
2021/06/24 01:36:00;;;;;;;2.30;1.67;;;16.00;99.90;;;;;;4952480;29;20182;-78
2021/06/24 01:38:25;;;;;;;1.10;1.00;;;16.00;99.90;;;;;;4945624;28;20492;-78
2021/06/24 01:40:51;;;;;;;4.10;1.57;;;15.90;99.90;;;;;;4948213;28;20418;-78
2021/06/24 01:43:17;;;;;;;2.30;2.10;;;15.90;99.90;;;;;;4953486;29;20186;-78
2021/06/24 01:45:57;;;;;;;1.50;1.40;;;15.90;99.90;;;;;;4947272;29;20524;-78
2021/06/24 01:48:24;;;;;;;2.27;2.07;;;15.90;99.90;;;;;;4956571;28;20193;-79
2021/06/24 01:50:52;;;;;;;1.17;1.10;;;15.90;99.90;;;;;;4949218;28;20421;-78
2021/06/24 01:53:17;;;;;;;2.70;1.73;;;15.90;99.90;;;;;;4953451;29;20628;-77
2021/06/24 01:55:43;;;;;;;1.53;1.33;;;15.90;99.90;;;;;;4951494;29;20520;-77
2021/06/24 01:58:13;;;;;;;1.20;1.10;;;15.90;99.90;;;;;;4950829;28;20281;-78
2021/06/24 02:00:45;;;;;;;3.10;1.90;;;15.90;99.90;;;;;;4943096;28;20186;-78
2021/06/24 02:03:12;;;;;;;4.13;2.33;;;15.90;99.90;;;;;;4941197;29;20924;-78
2021/06/24 02:05:38;;;;;;;1.80;1.33;;;15.90;99.90;;;;;;4951964;28;20927;-78
2021/06/24 02:08:03;;;;;;;1.33;1.23;;;15.90;99.90;;;;;;4953379;28;20448;-78
2021/06/24 02:10:29;;;;;;;1.37;0.87;;;16.00;99.90;;;;;;4949184;28;20187;-78
2021/06/24 02:12:56;;;;;;;1.60;1.50;;;16.00;99.90;;;;;;4946576;28;20199;-77
2021/06/24 02:15:21;;;;;;;0.80;0.70;;;16.00;99.90;;;;;;4945186;29;20190;-78
2021/06/24 02:17:47;;;;;;;1.43;1.23;;;16.00;99.90;;;;;;4952121;29;20513;-77
2021/06/24 02:20:16;;;;;;;2.10;1.60;;;16.10;99.90;;;;;;4953045;28;20190;-77
2021/06/24 02:22:45;;;;;;;0.80;0.80;;;16.10;99.90;;;;;;4954959;28;20233;-77
2021/06/24 02:25:13;;;;;;;3.37;1.93;;;16.20;99.90;;;;;;4955398;28;20658;-77
2021/06/24 02:27:39;;;;;;;1.30;1.20;;;16.10;99.90;;;;;;4944044;28;20446;-77
2021/06/24 02:30:07;;;;;;;1.17;0.90;;;16.10;99.90;;;;;;4946306;29;20426;-79
2021/06/24 02:32:32;;;;;;;1.13;0.93;;;16.20;99.90;;;;;;4957572;29;20480;-77
2021/06/24 02:34:58;;;;;;;0.70;0.53;;;16.20;99.90;;;;;;4956916;29;20477;-77
2021/06/24 02:37:23;;;;;;;1.33;1.23;;;16.10;99.90;;;;;;4956098;29;20278;-77
2021/06/24 02:39:49;;;;;;;1.57;1.47;;;16.20;99.90;;;;;;4957842;28;20857;-78
2021/06/24 02:42:16;;;;;;;2.07;1.50;;;16.20;99.90;;;;;;4957457;28;20190;-77
2021/06/24 02:44:42;;;;;;;1.10;1.00;;;16.10;99.90;;;;;;4956149;29;20197;-78
2021/06/24 02:47:08;;;;;;;1.70;1.60;;;16.10;99.90;;;;;;4952838;28;20959;-79
2021/06/24 02:49:34;;;;;;;1.97;0.80;;;16.10;99.90;;;;;;4961700;28;20436;-78
2021/06/24 02:51:59;;;;;;;1.23;1.10;;;16.00;99.90;;;;;;4955967;29;20462;-77
2021/06/24 02:54:25;;;;;;;1.00;0.90;;;16.00;99.90;;;;;;4952743;29;20552;-77
2021/06/24 02:56:51;;;;;;;1.40;1.10;;;16.00;99.90;;;;;;4948234;29;20476;-77
2021/06/24 02:59:17;;;;;;;1.40;1.30;;;16.00;99.90;;;;;;4955081;28;20437;-77
2021/06/24 03:01:42;;;;;;;0.70;0.60;;;16.00;99.90;;;;;;4953472;28;20265;-77
2021/06/24 03:04:08;;;;;;;5.60;1.70;;;16.10;99.90;;;;;;4955748;28;20237;-77
2021/06/24 03:06:34;;;;;;;0.80;0.77;;;16.10;99.90;;;;;;4954159;28;20221;-77
2021/06/24 03:09:05;;;;;;;4.10;1.43;;;16.10;99.90;;;;;;4946124;29;20203;-78
2021/06/24 03:11:31;;;;;;;4.40;1.57;;;16.10;99.90;;;;;;4951658;28;20437;-77
2021/06/24 03:13:57;;;;;;;1.60;0.80;;;16.20;99.90;;;;;;4955807;28;20430;-77
2021/06/24 03:16:23;;;;;;;1.37;1.27;;;16.20;99.90;;;;;;4955534;28;20488;-78
2021/06/24 03:18:49;;;;;;;1.17;0.83;;;16.30;99.90;;;;;;4951331;29;20210;-78
2021/06/24 03:21:16;;;;;;;3.27;2.97;;;16.20;99.90;;;;;;4939740;28;20179;-76
2021/06/24 03:23:42;;;;;;;1.63;1.53;;;16.20;99.90;;;;;;4956607;29;20461;-79
2021/06/24 03:26:07;;;;;;;1.40;1.30;;;16.20;99.90;;;;;;4970145;28;20791;-77
2021/06/24 03:28:33;;;;;;;13.60;1.73;;;16.30;99.90;;;;;;4977890;28;20209;-78
2021/06/24 03:30:59;;;;;;;1.23;1.13;;;16.30;99.90;;;;;;4960710;28;20186;-78
2021/06/24 03:33:25;;;;;;;1.93;1.83;;;16.20;99.90;;;;;;4953296;28;20209;-79
2021/06/24 03:35:51;;;;;;;3.50;1.70;;;16.20;99.90;;;;;;4943034;29;20540;-78
2021/06/24 03:38:17;;;;;;;3.47;2.63;;;16.30;99.90;;;;;;4944406;28;20525;-78
2021/06/24 03:40:43;;;;;;;4.33;2.40;;;16.30;99.90;;;;;;4949458;28;20900;-78
2021/06/24 03:43:09;;;;;;;2.33;2.10;;;16.30;99.90;;;;;;4950133;28;20433;-78
2021/06/24 03:45:34;;;;;;;0.80;0.70;;;16.40;99.90;;;;;;4945852;28;20209;-77
2021/06/24 03:48:00;;;;;;;1.97;1.80;;;16.40;99.90;;;;;;4958160;28;20943;-77
2021/06/24 03:50:26;;;;;;;1.57;1.47;;;16.40;99.90;;;;;;4954313;28;20734;-79
2021/06/24 03:52:51;;;;;;;10.80;1.93;;;16.30;99.90;;;;;;4946413;29;20205;-79
2021/06/24 03:55:19;;;;;;;0.70;0.70;;;16.40;99.90;;;;;;4953406;29;20167;-79
2021/06/24 03:57:45;;;;;;;2.40;1.97;;;16.40;99.90;;;;;;4955010;28;20285;-78
2021/06/24 04:00:12;;;;;;;2.77;1.17;;;16.40;99.90;;;;;;4958000;28;20445;-78
2021/06/24 04:02:38;;;;;;;1.93;0.90;;;16.50;99.90;;;;;;4952071;28;20776;-77
2021/06/24 04:05:03;;;;;;;1.10;0.83;;;16.50;99.90;;;;;;4953388;29;20437;-78
2021/06/24 04:07:29;;;;;;;1.67;1.33;;;16.50;99.90;;;;;;4954255;28;20653;-78
2021/06/24 04:09:54;;;;;;;0.87;0.83;;;16.50;99.90;;;;;;4953400;29;20460;-78
2021/06/24 04:12:20;;;;;;;1.20;1.10;;;16.50;99.90;;;;;;4959708;28;20240;-78
2021/06/24 04:14:46;;;;;;;1.00;0.90;;;16.50;99.90;;;;;;4954082;28;20262;-77
2021/06/24 04:17:11;;;;;;;1.83;1.73;;;16.50;99.90;;;;;;4954918;28;20170;-78
2021/06/24 04:19:37;;;;;;;1.30;1.20;;;16.60;99.90;;;;;;4956918;28;20190;-79
2021/06/24 04:22:02;;;;;;;1.53;1.07;;;16.60;99.90;;;;;;4955664;28;20187;-79
2021/06/24 04:24:28;;;;;;;3.07;2.07;;;16.70;99.90;;;;;;4956659;28;20640;-78
2021/06/24 04:26:54;;;;;;;3.47;1.40;;;16.70;99.90;;;;;;4955719;29;20190;-79
2021/06/24 04:29:19;;;;;;;3.17;1.80;;;16.80;99.90;;;;;;4955327;29;20229;-78
2021/06/24 04:31:45;;;;;;;1.43;1.33;;;16.80;99.90;;;;;;4955127;28;20206;-79
2021/06/24 04:34:10;;;;;;;4.20;2.40;;;16.90;99.90;;;;;;4942710;28;20186;-79
2021/06/24 04:36:36;;;;;;;1.73;1.63;;;16.90;99.90;;;;;;4954792;29;20201;-79
2021/06/24 04:39:02;;;;;;;1.60;1.30;;;16.90;99.90;;;;;;4955723;28;20664;-78
2021/06/24 04:41:27;;;;;;;2.70;1.27;;;16.90;99.90;;;;;;4955682;28;20171;-78
2021/06/24 04:43:53;;;;;;;1.33;1.23;;;17.00;99.90;;;;;;4955163;29;20265;-79
2021/06/24 04:46:19;;;;;;;1.50;1.40;;;17.00;99.90;;;;;;4954719;28;20628;-79
2021/06/24 04:48:44;;;;;;;1.10;1.00;;;17.00;99.90;;;;;;4954716;28;20254;-78
2021/06/24 04:51:10;;;;;;;1.87;1.60;;;17.00;99.90;;;;;;4954767;28;20185;-78
2021/06/24 04:53:35;;;;;;;1.10;1.00;;;17.10;99.90;;;;;;4942317;28;20210;-79
2021/06/24 04:56:01;;;;;;;0.97;0.97;;;17.10;99.90;;;;;;4951677;29;20273;-79
2021/06/24 04:58:27;;;;;;;1.30;1.00;;;17.10;99.90;;;;;;4947405;29;20191;-79
2021/06/24 05:00:52;;;;;;;1.43;1.00;;;17.10;99.90;;;;;;4944652;29;20971;-78
2021/06/24 05:03:18;;;;;;;1.00;0.50;;;17.10;99.90;;;;;;4955469;28;20265;-78
2021/06/24 05:05:44;;;;;;;3.77;1.93;;;17.10;99.90;;;;;;4955456;28;20556;-79
2021/06/24 05:08:15;;;;;;;3.10;1.50;;;17.20;99.90;;;;;;4954962;28;20202;-78
2021/06/24 05:10:40;;;;;;;0.80;0.80;;;17.20;99.90;;;;;;4954843;29;20666;-78
2021/06/24 05:13:06;;;;;;;4.93;2.10;;;17.30;99.90;;;;;;4953973;29;20465;-79
2021/06/24 05:15:33;;;;;;;2.50;2.30;;;17.30;99.90;;;;;;4952270;29;20171;-79
2021/06/24 05:17:58;;;;;;;0.70;0.60;;;17.40;99.90;;;;;;4947674;28;20289;-79
2021/06/24 05:20:24;;;;;;;2.57;1.63;;;17.40;99.90;;;;;;4951237;28;20570;-79
2021/06/24 05:22:49;;;;;;;0.70;0.50;;;17.40;99.90;;;;;;4955218;28;20193;-78
2021/06/24 05:25:15;;;;;;;3.00;2.70;;;17.50;99.90;;;;;;4954651;29;20703;-78
2021/06/24 05:27:40;;;;;;;1.20;1.00;;;17.60;99.90;;;;;;4954542;29;20201;-79
2021/06/24 05:30:07;;;;;;;1.17;0.83;;;17.60;99.90;;;;;;4955276;29;20186;-79
2021/06/24 05:32:32;;;;;;;1.77;1.53;;;17.60;99.90;;;;;;4956043;28;20690;-79
2021/06/24 05:34:58;;;;;;;2.90;2.80;;;17.70;99.90;;;;;;4953988;28;20532;-80
2021/06/24 05:37:24;;;;;;;2.00;1.90;;;17.60;99.90;;;;;;4954111;29;20297;-79
2021/06/24 05:39:49;;;;;;;2.10;1.40;;;17.70;99.90;;;;;;4952348;29;20678;-78
2021/06/24 05:42:15;;;;;;;2.17;2.00;;;17.70;99.90;;;;;;4954704;28;20575;-78
2021/06/24 05:44:40;;;;;;;2.70;1.10;;;17.80;99.90;;;;;;4953437;28;20194;-79
2021/06/24 05:47:06;;;;;;;0.70;0.67;;;17.80;99.90;;;;;;4954830;29;20237;-77
2021/06/24 05:49:31;;;;;;;1.73;1.43;;;17.80;99.90;;;;;;4953089;29;20213;-79
2021/06/24 05:51:57;;;;;;;1.47;0.90;;;17.90;99.90;;;;;;4951907;28;20209;-79
2021/06/24 05:54:23;;;;;;;1.20;1.10;;;17.90;99.90;;;;;;4955747;28;20193;-79
2021/06/24 05:56:48;;;;;;;2.47;1.43;;;17.90;99.90;;;;;;4954498;28;20178;-79
2021/06/24 05:59:14;;;;;;;2.47;1.83;;;17.90;99.90;;;;;;4958089;28;20186;-78
2021/06/24 06:01:43;;;;;;;1.50;1.30;;;17.90;99.90;;;;;;4956853;28;20182;-77
2021/06/24 06:04:09;;;;;;;7.00;1.40;;;17.90;99.90;;;;;;4957086;29;20440;-78
2021/06/24 06:06:35;;;;;;;2.10;1.90;;;18.00;99.90;;;;;;4956780;29;20436;-80
2021/06/24 06:09:00;;;;;;;1.13;1.03;;;18.00;99.90;;;;;;4958011;29;20461;-79
2021/06/24 06:11:26;;;;;;;2.40;2.30;;;18.00;99.90;;;;;;4955538;28;20177;-78
2021/06/24 06:13:51;;;;;;;3.33;3.13;;;18.10;99.90;;;;;;4972403;28;20241;-78
2021/06/24 06:16:17;;;;;;;2.93;2.73;;;18.20;99.90;;;;;;4957950;28;20189;-79
2021/06/24 06:18:43;;;;;;;1.47;1.37;;;18.20;99.90;;;;;;4956723;28;20288;-79
2021/06/24 06:21:08;;;;;;;0.80;0.70;;;18.20;99.90;;;;;;4958470;28;20186;-78
2021/06/24 06:23:34;;;;;;;2.17;0.93;;;18.20;99.90;;;;;;4954666;28;20225;-79
2021/06/24 06:25:59;;;;;;;1.97;1.27;;;18.20;99.90;;;;;;4964435;28;20276;-79
2021/06/24 06:28:26;;;;;;;3.37;3.07;;;18.20;99.90;;;;;;4974155;28;20573;-77
2021/06/24 06:30:54;;;;;;;5.00;2.63;;;18.30;99.90;;;;;;4956981;28;20185;-80
2021/06/24 06:33:21;;;;;;;1.27;1.17;;;18.40;99.90;;;;;;4955268;28;20512;-79
2021/06/24 06:35:47;;;;;;;2.17;1.97;;;18.30;99.90;;;;;;4956177;28;20918;-79
2021/06/24 06:38:13;;;;;;;3.80;2.40;;;18.40;99.90;;;;;;4954721;28;20461;-79
2021/06/24 06:40:39;;;;;;;0.90;0.63;;;18.40;99.90;;;;;;4959235;28;20950;-78
2021/06/24 06:43:05;;;;;;;2.70;2.07;;;18.50;99.90;;;;;;4958224;28;20182;-78
2021/06/24 06:45:33;;;;;;;2.00;1.43;;;18.50;99.90;;;;;;4957835;28;20190;-77
2021/06/24 06:47:58;;;;;;;1.83;1.10;;;18.40;99.90;;;;;;4959630;28;20496;-78
2021/06/24 06:50:24;;;;;;;1.60;1.47;;;18.50;99.90;;;;;;4952946;28;20996;-79
2021/06/24 06:52:50;;;;;;;1.73;1.27;;;18.60;99.90;;;;;;4950950;29;20213;-78
2021/06/24 06:55:16;;;;;;;1.73;1.17;;;18.50;99.90;;;;;;4956481;28;20449;-78
2021/06/24 06:57:41;;;;;;;1.53;1.20;;;18.60;99.90;;;;;;4958347;28;20190;-79
2021/06/24 07:00:10;;;;;;;2.30;1.53;;;18.60;99.90;;;;;;4955198;28;20210;-79
2021/06/24 07:02:37;;;;;;;2.33;2.13;;;18.70;99.90;;;;;;4954958;29;20209;-79
2021/06/24 07:05:03;;;;;;;8.30;2.33;;;18.60;99.90;;;;;;4952986;28;20469;-79
2021/06/24 07:07:29;;;;;;;1.73;1.13;;;18.70;99.90;;;;;;4955878;28;20464;-77
2021/06/24 07:09:54;;;;;;;3.20;1.90;;;18.80;99.90;;;;;;4953568;28;20501;-79
2021/06/24 07:12:20;;;;;;;2.50;2.40;;;18.90;99.90;;;;;;4956338;28;20202;-79
2021/06/24 07:14:47;;;;;;;1.30;1.20;;;18.90;99.90;;;;;;4957124;28;20181;-77
2021/06/24 07:17:13;;;;;;;1.63;1.27;;;19.00;99.90;;;;;;4952875;28;20187;-79
2021/06/24 07:19:39;;;;;;;2.33;2.20;;;19.00;99.90;;;;;;4947672;29;20449;-80
2021/06/24 07:22:04;;;;;;;1.70;1.60;;;19.10;99.90;;;;;;4955692;28;20246;-80
2021/06/24 07:24:30;;;;;;;4.27;1.93;;;19.30;99.90;;;;;;4957790;28;20186;-79
2021/06/24 07:26:56;;;;;;;2.13;1.77;;;19.40;99.90;;;;;;4954216;28;20181;-80
2021/06/24 07:29:21;;;;;;;1.63;1.50;;;19.60;99.90;;;;;;4956797;28;20198;-80
2021/06/24 07:31:47;;;;;;;2.77;2.60;;;19.70;99.90;;;;;;4958198;28;20182;-80
2021/06/24 07:34:12;;;;;;;4.40;2.70;;;19.80;99.90;;;;;;4959629;28;20178;-79
2021/06/24 07:36:39;;;;;;;1.67;1.53;;;19.90;99.90;;;;;;4959417;28;20243;-78
2021/06/24 07:39:05;;;;;;;3.77;1.90;;;20.00;99.90;;;;;;4957555;28;20202;-79
2021/06/24 07:41:31;;;;;;;2.40;2.20;;;20.20;99.90;;;;;;4956948;28;20429;-79
2021/06/24 07:43:56;;;;;;;2.97;2.73;;;20.40;99.90;;;;;;4957911;28;20211;-78
2021/06/24 07:46:24;;;;;;;4.27;1.60;;;20.60;99.90;;;;;;4958568;29;20206;-80
2021/06/24 07:48:50;;;;;;;6.40;2.90;;;20.80;99.90;;;;;;4953624;28;20198;-80
2021/06/24 07:51:15;;;;;;;2.43;2.23;;;20.90;99.90;;;;;;4957186;28;20441;-80
2021/06/24 07:53:44;;;;;;;4.87;3.03;;;21.10;99.90;;;;;;4958405;28;20469;-79
2021/06/24 07:56:18;;;;;;;5.63;3.43;;;21.20;99.90;;;;;;4955111;28;20186;-79
2021/06/24 07:58:44;;;;;;;1.83;1.60;;;21.40;99.90;;;;;;4953825;28;20461;-80
2021/06/24 08:01:15;;;;;;;2.20;1.80;;;21.60;99.90;;;;;;4956812;29;20429;-79
2021/06/24 08:04:25;;;;;;;3.17;2.23;;;21.70;99.90;;;;;;4956054;29;20209;-78
2021/06/24 08:06:52;;;;;;;2.93;2.23;;;21.90;99.90;;;;;;4963035;28;20436;-78
2021/06/24 08:09:35;;;;;;;1.80;1.70;;;22.00;99.90;;;;;;4965616;28;20876;-79
2021/06/24 08:12:01;;;;;;;1.47;1.37;;;22.00;99.90;;;;;;4960408;28;21134;-78
2021/06/24 08:14:27;;;;;;;2.10;1.37;;;22.00;99.90;;;;;;4962956;28;20426;-79
2021/06/24 08:17:03;;;;;;;1.70;1.30;;;22.10;99.90;;;;;;4951959;28;20181;-79
2021/06/24 08:19:29;;;;;;;2.33;1.53;;;22.10;99.90;;;;;;4953233;28;20455;-79
2021/06/24 08:21:58;;;;;;;1.57;1.47;;;22.10;99.90;;;;;;4957799;28;20507;-79
2021/06/24 08:24:24;;;;;;;4.37;2.40;;;22.00;99.90;;;;;;4956437;28;20178;-78
2021/06/24 08:26:50;;;;;;;2.50;1.93;;;22.20;99.90;;;;;;4962574;28;20430;-78
2021/06/24 08:29:15;;;;;;;2.83;1.73;;;22.30;99.90;;;;;;4961432;28;20452;-77
2021/06/24 08:31:42;;;;;;;2.90;1.60;;;22.40;99.90;;;;;;4963530;28;20256;-78
2021/06/24 08:34:07;;;;;;;2.30;2.10;;;22.70;99.90;;;;;;4958843;28;20257;-79
2021/06/24 08:36:33;;;;;;;2.10;1.90;;;23.20;99.90;;;;;;4961563;28;21186;-79
2021/06/24 08:38:58;;;;;;;2.10;2.00;;;23.70;99.90;;;;;;4963302;28;20186;-78
2021/06/24 08:41:27;;;;;;;3.20;1.83;;;24.10;99.90;;;;;;4960210;28;20565;-78
2021/06/24 08:43:53;;;;;;;2.77;1.80;;;24.50;99.90;;;;;;4959982;28;20178;-79
2021/06/24 08:46:21;;;;;;;1.43;1.10;;;24.80;99.90;;;;;;4959885;28;20421;-79
2021/06/24 08:48:47;;;;;;;3.07;2.10;;;25.10;99.90;;;;;;4960181;28;20963;-78
2021/06/24 08:51:12;;;;;;;2.73;2.03;;;25.20;99.90;;;;;;4955292;28;20418;-79
2021/06/24 08:53:39;;;;;;;4.93;1.50;;;25.00;99.90;;;;;;4962461;28;20491;-78
2021/06/24 08:56:06;;;;;;;2.93;2.73;;;24.90;99.90;;;;;;4965372;28;20193;-79
2021/06/24 08:58:33;;;;;;;3.10;2.47;;;24.80;99.90;;;;;;4963034;28;21158;-79
2021/06/24 09:00:59;;;;;;;1.33;1.23;;;24.70;99.90;;;;;;4965886;28;20417;-80
2021/06/24 09:03:28;;;;;;;2.07;1.87;;;24.50;99.90;;;;;;4960888;28;20434;-78
2021/06/24 09:06:02;;;;;;;2.30;2.10;;;24.40;99.90;;;;;;4957476;28;20426;-80
2021/06/24 09:08:39;;;;;;;1.43;1.33;;;24.10;99.90;;;;;;4957932;28;20456;-79
2021/06/24 09:11:08;;;;;;;2.43;2.23;;;24.00;99.90;;;;;;4954986;29;20858;-77
2021/06/24 09:13:33;;;;;;;3.13;2.13;;;23.90;99.90;;;;;;4952600;29;20884;-75
2021/06/24 09:16:21;;;;;;;2.07;1.97;;;23.70;99.90;;;;;;4948286;29;20456;-75
2021/06/24 09:18:47;;;;;;;2.70;2.40;;;23.80;99.90;;;;;;4943340;28;20909;-75
2021/06/24 09:21:24;;;;;;;3.00;2.70;;;23.90;99.90;;;;;;4952300;28;20421;-75
2021/06/24 09:23:51;;;;;;;1.97;1.80;;;23.90;99.90;;;;;;4943727;28;20435;-75
2021/06/24 09:26:19;;;;;;;1.80;1.57;;;23.90;99.90;;;;;;4952623;28;20428;-75
2021/06/24 09:28:49;;;;;;;2.37;2.00;;;23.70;99.90;;;;;;4958434;28;20496;-75
2021/06/24 09:31:29;;;;;;;3.37;2.33;;;23.60;99.90;;;;;;4953728;28;20824;-75
2021/06/24 09:34:04;;;;;;;2.10;1.90;;;23.40;99.90;;;;;;4956394;28;20843;-75
2021/06/24 09:36:38;;;;;;;2.53;2.40;;;23.20;99.90;;;;;;4956265;29;20505;-76
2021/06/24 09:39:27;;;;;;;2.30;2.10;;;23.10;99.90;;;;;;4947686;28;20438;-76
2021/06/24 09:42:00;;;;;;;1.90;1.60;;;23.00;99.90;;;;;;4956592;28;20401;-76
2021/06/24 09:44:26;;;;;;;3.50;2.53;;;22.90;99.90;;;;;;4961045;28;20410;-77
2021/06/24 09:46:52;;;;;;;1.97;1.43;;;22.80;99.90;;;;;;4969317;28;21008;-77
2021/06/24 09:49:32;;;;;;;4.43;2.60;;;22.70;99.90;;;;;;4964789;28;20194;-77
2021/06/24 09:51:59;;;;;;;5.17;2.63;;;22.60;99.90;;;;;;4964647;28;20548;-77
2021/06/24 09:54:46;;;;;;;3.27;2.10;;;22.60;99.90;;;;;;4960301;28;20790;-78
2021/06/24 09:57:24;;;;;;;3.23;2.57;;;22.60;99.90;;;;;;4965125;28;20789;-76
2021/06/24 09:59:51;;;;;;;1.97;1.70;;;22.60;99.90;;;;;;4968243;28;20421;-77
2021/06/24 10:02:19;;;;;;;1.80;1.70;;;22.60;99.90;;;;;;4967218;28;20421;-78
2021/06/24 10:04:46;;;;;;;4.60;2.10;;;22.60;99.90;;;;;;4967115;28;20923;-77
2021/06/24 10:07:17;;;;;;;1.50;1.30;;;22.70;99.90;;;;;;4960518;28;20446;-77
2021/06/24 10:09:44;;;;;;;3.00;2.80;;;22.80;99.90;;;;;;4959343;28;20978;-77
2021/06/24 10:12:13;;;;;;;3.37;3.10;;;22.70;99.90;;;;;;4963576;28;20808;-77
2021/06/24 10:14:40;;;;;;;2.50;1.93;;;22.80;99.90;;;;;;4966875;28;20488;-77
2021/06/24 10:17:07;;;;;;;2.50;1.63;;;22.90;99.90;;;;;;4966068;28;20500;-77
2021/06/24 10:19:35;;;;;;;2.50;2.00;;;22.90;99.90;;;;;;4968968;28;20424;-77
2021/06/24 10:22:21;;;;;;;2.40;2.20;;;22.90;99.90;;;;;;4960413;28;20425;-76
2021/06/24 10:25:02;;;;;;;3.20;3.00;;;23.00;99.90;;;;;;4965860;28;20417;-76
2021/06/24 10:27:36;;;;;;;3.47;3.10;;;23.00;99.90;;;;;;4960524;28;20487;-78
2021/06/24 10:30:10;;;;;;;2.60;1.43;;;22.90;99.90;;;;;;4955953;28;20426;-76
2021/06/24 10:32:35;;;;;;;2.60;1.90;;;22.90;99.90;;;;;;4958764;28;21044;-77
2021/06/24 10:35:06;;;;;;;2.00;1.80;;;22.80;99.90;;;;;;4962128;28;20426;-76
2021/06/24 10:37:32;;;;;;;2.07;1.97;;;22.80;99.90;;;;;;4967634;28;20193;-76
2021/06/24 10:39:59;;;;;;;2.90;2.33;;;22.80;99.90;;;;;;4967470;28;20856;-77
2021/06/24 10:42:28;;;;;;;2.03;1.93;;;22.70;99.90;;;;;;4960614;28;20449;-76
2021/06/24 10:44:56;;;;;;;3.57;2.43;;;22.70;99.90;;;;;;4962430;28;20493;-76
2021/06/24 10:47:39;;;;;;;2.77;2.57;;;22.60;99.90;;;;;;4961123;28;20453;-76
2021/06/24 10:50:33;;;;;;;2.27;1.57;;;22.60;99.90;;;;;;4961103;28;20436;-76
2021/06/24 10:52:59;;;;;;;2.40;2.20;;;22.70;99.90;;;;;;4958986;28;20457;-77
2021/06/24 10:55:41;;;;;;;2.53;2.20;;;22.70;99.90;;;;;;4956384;28;20441;-76
2021/06/24 10:58:10;;;;;;;4.30;1.90;;;22.80;99.90;;;;;;4962152;28;20579;-76
2021/06/24 11:00:42;;;;;;;2.30;2.10;;;22.90;99.90;;;;;;4962682;28;20427;-76
2021/06/24 11:03:13;;;;;;;2.60;2.07;;;23.20;99.90;;;;;;4965848;28;20846;-76
2021/06/24 11:05:40;;;;;;;2.47;2.27;;;23.50;99.90;;;;;;4963047;28;20485;-77
2021/06/24 11:08:11;;;;;;;4.37;1.83;;;23.80;99.90;;;;;;4966012;28;20437;-76
2021/06/24 11:10:57;;;;;;;3.17;2.03;;;24.20;99.90;;;;;;4961112;28;20480;-77
2021/06/24 11:16:09;;;;;;;1.20;1.10;;;24.80;99.90;;;;;;4964856;28;20950;-76
2021/06/24 11:18:34;;;;;;;2.00;1.70;;;25.10;99.90;;;;;;4959656;28;20792;-76
2021/06/24 11:21:05;;;;;;;1.80;1.63;;;25.40;99.90;;;;;;4963702;28;20423;-76
2021/06/24 11:23:35;;;;;;;2.70;2.17;;;25.70;99.90;;;;;;4962902;28;20234;-76
2021/06/24 11:26:17;;;;;;;3.43;2.60;;;26.00;99.90;;;;;;4964706;28;20425;-76
2021/06/24 11:28:54;;;;;;;1.90;1.80;;;26.30;99.90;;;;;;4965269;28;20782;-76
2021/06/24 11:31:35;;;;;;;1.97;1.50;;;26.80;99.90;;;;;;4961556;28;20511;-76
2021/06/24 11:36:34;;;;;;;2.60;2.40;;;27.30;99.90;;;;;;4959338;28;20436;-77
2021/06/24 11:39:00;;;;;;;2.10;1.40;;;27.30;99.90;;;;;;4963351;28;20938;-76
2021/06/24 11:41:26;;;;;;;2.83;2.37;;;27.40;99.90;;;;;;4963038;28;20186;-76
2021/06/24 11:44:10;;;;;;;2.50;2.30;;;27.40;99.90;;;;;;4965751;28;20490;-76
2021/06/24 11:46:36;;;;;;;4.43;2.00;;;27.40;99.90;;;;;;4964854;28;20467;-77
2021/06/24 12:03:06;;;;;;;5.13;2.23;;;27.50;99.90;;;;;;4954948;29;20421;-76
2021/06/24 12:05:31;;;;;;;1.73;1.63;;;27.20;99.90;;;;;;4954631;28;20445;-77
2021/06/24 12:07:57;;;;;;;2.07;1.87;;;27.00;99.90;;;;;;4955157;29;20835;-77
2021/06/24 12:10:23;;;;;;;2.23;1.80;;;26.80;99.90;;;;;;4952192;29;20330;-77
2021/06/24 12:12:51;;;;;;;1.83;1.63;;;26.70;99.90;;;;;;4954781;28;20236;-77
2021/06/24 12:15:17;;;;;;;2.00;1.40;;;26.50;99.90;;;;;;4954531;29;20413;-77
2021/06/24 12:17:42;;;;;;;1.40;1.30;;;26.30;99.90;;;;;;4954561;28;20438;-77
2021/06/24 12:20:09;;;;;;;2.90;1.93;;;26.10;99.90;;;;;;4954621;28;20426;-76
2021/06/24 12:22:36;;;;;;;1.63;1.53;;;25.80;99.90;;;;;;4955055;29;20548;-76
2021/06/24 12:25:23;;;;;;;1.77;1.40;;;25.60;99.90;;;;;;4954422;29;20441;-76
2021/06/24 12:27:54;;;;;;;2.10;1.90;;;25.50;99.90;;;;;;4953947;28;20452;-77
2021/06/24 12:30:21;;;;;;;1.80;1.50;;;25.40;99.90;;;;;;4954638;28;20425;-76
2021/06/24 12:32:52;;;;;;;2.30;1.50;;;25.30;99.90;;;;;;4954374;29;21018;-77
2021/06/24 12:35:48;;;;;;;1.80;1.70;;;25.20;99.90;;;;;;4954416;28;20488;-76
2021/06/24 12:38:19;;;;;;;3.10;2.33;;;25.20;99.90;;;;;;4953036;29;20441;-76
2021/06/24 12:40:53;;;;;;;3.50;3.20;;;25.10;99.90;;;;;;4954019;28;20507;-76
2021/06/24 12:43:20;;;;;;;2.47;2.27;;;25.10;99.90;;;;;;4953943;29;20458;-77
2021/06/24 12:45:49;;;;;;;2.13;2.00;;;25.00;99.90;;;;;;4954068;28;20412;-77
2021/06/24 12:48:33;;;;;;;1.80;1.70;;;25.00;99.90;;;;;;4951216;29;20445;-76
2021/06/24 12:51:07;;;;;;;3.60;3.40;;;24.80;99.90;;;;;;4954396;29;20414;-76
2021/06/24 12:53:40;;;;;;;1.97;1.20;;;24.60;99.90;;;;;;4952709;28;20457;-77
2021/06/24 12:56:19;;;;;;;2.10;1.90;;;24.50;99.90;;;;;;4953035;28;20875;-76
2021/06/24 12:58:45;;;;;;;1.67;1.50;;;24.40;99.90;;;;;;4952598;28;20453;-76
2021/06/24 13:01:17;;;;;;;3.50;3.00;;;24.20;99.90;;;;;;4954250;28;20398;-76
2021/06/24 13:03:50;;;;;;;1.93;1.73;;;24.10;99.90;;;;;;4954075;28;20433;-76
2021/06/24 13:06:23;;;;;;;2.40;1.00;;;24.00;99.90;;;;;;4951263;28;20422;-76
2021/06/24 13:08:54;;;;;;;3.20;1.60;;;23.90;99.90;;;;;;4953998;29;21097;-76
2021/06/24 13:11:25;;;;;;;2.67;1.37;;;23.80;99.90;;;;;;4952825;28;20764;-76